Time;durP1;ratioP1;P1;durP2;ratioP2;P2;SDS_P1;SDS_P2;PMS_P1;PMS_P2;Temp;Humidity;BMP_temperature;BMP_pressure;BME280_temperature;BME280_humidity;BME280_pressure;Samples;Min_cycle;Max_cycle;Signal;HPM_P1;HPM_P2
2022/04/24 00:00:56;;;;;;;;;;;19.80;93.20;;;;;;5000936;28;20009;-56
2022/04/24 00:03:23;;;;;;;;;;;19.80;93.20;;;;;;5004143;28;19933;-59
2022/04/24 00:05:51;;;;;;;;;;;19.80;93.30;;;;;;5000209;28;19929;-57
2022/04/24 00:08:18;;;;;;;;;;;19.80;93.30;;;;;;4992548;28;20320;-59
2022/04/24 00:10:45;;;;;;;;;;;19.80;93.40;;;;;;5004636;28;19939;-59
2022/04/24 00:13:12;;;;;;;;;;;19.80;93.40;;;;;;5008866;28;19930;-61
2022/04/24 00:15:39;;;;;;;;;;;19.80;93.40;;;;;;5002333;28;19929;-60
2022/04/24 00:18:06;;;;;;;;;;;19.70;93.40;;;;;;4994576;28;19936;-59
2022/04/24 00:20:34;;;;;;;;;;;19.70;93.40;;;;;;5004120;28;19937;-58
2022/04/24 00:23:01;;;;;;;;;;;19.70;93.40;;;;;;5007648;28;20454;-58
2022/04/24 00:25:28;;;;;;;;;;;19.70;93.50;;;;;;4994044;28;19940;-57
2022/04/24 00:27:55;;;;;;;;;;;19.70;93.50;;;;;;4994932;28;19934;-58
2022/04/24 00:30:22;;;;;;;;;;;19.70;93.50;;;;;;5005038;28;19929;-58
2022/04/24 00:32:49;;;;;;;;;;;19.70;93.50;;;;;;5004217;28;19937;-58
2022/04/24 00:35:16;;;;;;;;;;;19.70;93.60;;;;;;5009381;28;20320;-57
2022/04/24 00:37:43;;;;;;;;;;;19.70;93.60;;;;;;4998419;28;19925;-58
2022/04/24 00:40:11;;;;;;;;;;;19.70;93.60;;;;;;5010043;28;19925;-57
2022/04/24 00:42:38;;;;;;;;;;;19.70;93.60;;;;;;4996342;28;20313;-56
2022/04/24 00:45:05;;;;;;;;;;;19.70;93.70;;;;;;5011320;28;19940;-56
2022/04/24 00:47:59;;;;;;;;;;;19.60;93.70;;;;;;5006182;28;19926;-58
2022/04/24 00:50:26;;;;;;;;;;;19.70;93.70;;;;;;5004564;28;19925;-59
2022/04/24 00:52:53;;;;;;;;;;;19.70;93.70;;;;;;4993095;28;19933;-59
2022/04/24 00:55:22;;;;;;;;;;;19.60;93.70;;;;;;4993007;28;19933;-58
2022/04/24 00:57:49;;;;;;;;;;;19.70;93.70;;;;;;5005851;28;20419;-56
2022/04/24 01:00:16;;;;;;;;;;;19.70;93.80;;;;;;5002576;28;20341;-58
2022/04/24 01:02:43;;;;;;;;;;;19.60;93.80;;;;;;5010407;28;19930;-58
2022/04/24 01:05:11;;;;;;;;;;;19.60;93.80;;;;;;5002520;28;19932;-59
2022/04/24 01:07:38;;;;;;;;;;;19.70;93.80;;;;;;4997824;28;20097;-56
2022/04/24 01:10:05;;;;;;;;;;;19.60;93.80;;;;;;5000161;28;19936;-55
2022/04/24 01:12:32;;;;;;;;;;;19.60;93.80;;;;;;4995566;28;19949;-55
2022/04/24 01:14:59;;;;;;;;;;;19.70;93.90;;;;;;5009863;28;20372;-55
2022/04/24 01:17:27;;;;;;;;;;;19.60;93.90;;;;;;5026215;28;19940;-58
2022/04/24 01:19:54;;;;;;;;;;;19.60;93.90;;;;;;5005739;28;19930;-57
2022/04/24 01:22:21;;;;;;;;;;;19.60;93.90;;;;;;5005896;28;19958;-56
2022/04/24 01:24:48;;;;;;;;;;;19.60;93.90;;;;;;4992034;28;19936;-55
2022/04/24 01:27:15;;;;;;;;;;;19.60;93.90;;;;;;5000612;28;19949;-57
2022/04/24 01:29:43;;;;;;;;;;;19.60;94.00;;;;;;4991022;28;19930;-58
2022/04/24 01:32:10;;;;;;;;;;;19.60;94.00;;;;;;5008587;28;19937;-57
2022/04/24 01:34:37;;;;;;;;;;;19.60;94.00;;;;;;5005777;28;19953;-56
2022/04/24 01:37:04;;;;;;;;;;;19.60;94.00;;;;;;5007037;28;20293;-58
2022/04/24 01:39:32;;;;;;;;;;;19.60;94.00;;;;;;4992930;28;19937;-58
2022/04/24 01:41:59;;;;;;;;;;;19.60;94.10;;;;;;5001954;28;19925;-58
2022/04/24 01:44:26;;;;;;;;;;;19.60;94.10;;;;;;4998550;28;19945;-57
2022/04/24 01:46:53;;;;;;;;;;;19.60;94.10;;;;;;5014722;28;19925;-56
2022/04/24 01:49:20;;;;;;;;;;;19.60;94.10;;;;;;4989367;28;19945;-58
2022/04/24 01:51:49;;;;;;;;;;;19.60;94.10;;;;;;4997376;28;19933;-56
2022/04/24 01:54:16;;;;;;;;;;;19.60;94.20;;;;;;5003527;28;19933;-57
2022/04/24 01:56:43;;;;;;;;;;;19.60;94.20;;;;;;5008231;28;19940;-58
2022/04/24 01:59:10;;;;;;;;;;;19.60;94.20;;;;;;5008068;28;19949;-58
2022/04/24 02:01:37;;;;;;;;;;;19.60;94.20;;;;;;5030883;28;19952;-58
2022/04/24 02:04:05;;;;;;;;;;;19.60;94.20;;;;;;5003152;28;19925;-57
2022/04/24 02:06:32;;;;;;;;;;;19.50;94.20;;;;;;5001582;28;20313;-55
2022/04/24 02:08:59;;;;;;;;;;;19.50;94.20;;;;;;5005640;28;19925;-57
2022/04/24 02:11:28;;;;;;;;;;;19.50;94.20;;;;;;5009843;28;19944;-57
2022/04/24 02:13:55;;;;;;;;;;;19.50;94.50;;;;;;4997016;28;19930;-54
2022/04/24 02:16:22;;;;;;;;;;;19.50;94.30;;;;;;5005922;28;20313;-53
2022/04/24 02:18:49;;;;;;;;;;;19.60;94.30;;;;;;4989795;28;19929;-56
2022/04/24 02:21:16;;;;;;;;;;;19.50;94.30;;;;;;4994524;28;19941;-57
2022/04/24 02:23:44;;;;;;;;;;;19.60;94.30;;;;;;5003935;28;19925;-53
2022/04/24 02:26:11;;;;;;;;;;;19.50;94.30;;;;;;4994636;28;19925;-57
2022/04/24 02:28:38;;;;;;;;;;;19.50;94.30;;;;;;4990079;28;19926;-57
2022/04/24 02:31:05;;;;;;;;;;;19.50;94.40;;;;;;4996166;28;20333;-57
2022/04/24 02:33:32;;;;;;;;;;;19.50;94.40;;;;;;4988959;28;20312;-58
2022/04/24 02:35:59;;;;;;;;;;;19.50;94.40;;;;;;4991348;28;19926;-58
2022/04/24 02:38:26;;;;;;;;;;;19.50;94.40;;;;;;5004039;28;19957;-58
2022/04/24 02:40:54;;;;;;;;;;;19.50;94.40;;;;;;5001676;28;20252;-55
2022/04/24 02:43:21;;;;;;;;;;;19.50;94.50;;;;;;4999250;28;19925;-57
2022/04/24 02:45:48;;;;;;;;;;;19.50;94.50;;;;;;5010595;28;19981;-54
2022/04/24 02:48:15;;;;;;;;;;;19.50;94.50;;;;;;4995304;28;19933;-57
2022/04/24 02:50:42;;;;;;;;;;;19.50;94.50;;;;;;4999437;28;19930;-59
2022/04/24 02:53:10;;;;;;;;;;;19.50;94.50;;;;;;5003408;28;19930;-58
2022/04/24 02:55:38;;;;;;;;;;;19.50;94.60;;;;;;4996961;28;19936;-57
2022/04/24 02:58:05;;;;;;;;;;;19.50;94.50;;;;;;5004431;28;19929;-58
2022/04/24 03:00:39;;;;;;;;;;;19.50;94.60;;;;;;4994226;28;19930;-59
2022/04/24 03:03:07;;;;;;;;;;;19.50;94.60;;;;;;5000136;28;19941;-57
2022/04/24 03:05:35;;;;;;;;;;;19.50;94.60;;;;;;5000313;28;20449;-57
2022/04/24 03:08:02;;;;;;;;;;;19.50;94.60;;;;;;5006612;28;19929;-58
2022/04/24 03:10:29;;;;;;;;;;;19.50;94.60;;;;;;5008492;28;19933;-59
2022/04/24 03:12:56;;;;;;;;;;;19.50;94.60;;;;;;4994300;28;19934;-60
2022/04/24 03:15:24;;;;;;;;;;;19.50;94.60;;;;;;5001377;28;19926;-58
2022/04/24 03:17:54;;;;;;;;;;;19.50;94.60;;;;;;4994875;28;19929;-59
2022/04/24 03:20:22;;;;;;;;;;;19.50;94.60;;;;;;5004416;28;19937;-59
2022/04/24 03:22:50;;;;;;;;;;;19.50;94.70;;;;;;4988218;28;19949;-58
2022/04/24 03:25:17;;;;;;;;;;;19.50;94.70;;;;;;4990063;28;19930;-58
2022/04/24 03:27:44;;;;;;;;;;;19.50;94.70;;;;;;4991907;28;19961;-55
2022/04/24 03:30:12;;;;;;;;;;;19.50;94.70;;;;;;5002981;28;19929;-58
2022/04/24 03:32:39;;;;;;;;;;;19.40;94.70;;;;;;4996333;28;19929;-58
2022/04/24 03:35:11;;;;;;;;;;;19.50;94.70;;;;;;4997912;28;20460;-58
2022/04/24 03:37:39;;;;;;;;;;;19.40;94.70;;;;;;4991415;28;19925;-55
2022/04/24 03:40:06;;;;;;;;;;;19.50;94.70;;;;;;4992669;28;19933;-54
2022/04/24 03:42:33;;;;;;;;;;;19.40;94.70;;;;;;5006687;28;19937;-56
2022/04/24 03:45:01;;;;;;;;;;;19.50;94.80;;;;;;5012862;28;20161;-59
2022/04/24 03:47:28;;;;;;;;;;;19.50;94.80;;;;;;5002682;28;19990;-55
2022/04/24 03:49:56;;;;;;;;;;;19.40;94.80;;;;;;4995539;28;19980;-57
2022/04/24 03:52:23;;;;;;;;;;;19.50;94.80;;;;;;4993998;28;20345;-58
2022/04/24 03:54:50;;;;;;;;;;;19.40;94.80;;;;;;4994509;28;20005;-58
2022/04/24 03:57:17;;;;;;;;;;;19.40;94.80;;;;;;5002570;28;19940;-54
2022/04/24 03:59:44;;;;;;;;;;;19.50;94.90;;;;;;5002676;28;19926;-57
2022/04/24 04:02:12;;;;;;;;;;;19.40;94.80;;;;;;5011374;28;19929;-59
2022/04/24 04:04:39;;;;;;;;;;;19.40;94.90;;;;;;5010848;28;20499;-57
2022/04/24 04:07:07;;;;;;;;;;;19.40;94.90;;;;;;5022772;28;20414;-59
2022/04/24 04:09:34;;;;;;;;;;;19.40;95.10;;;;;;5025162;28;19930;-56
2022/04/24 04:12:01;;;;;;;;;;;19.40;94.90;;;;;;5019532;28;19930;-56
2022/04/24 04:14:28;;;;;;;;;;;19.40;94.90;;;;;;5010631;28;19936;-56
2022/04/24 04:16:55;;;;;;;;;;;19.40;94.90;;;;;;5012122;28;19930;-56
2022/04/24 04:19:23;;;;;;;;;;;19.40;95.00;;;;;;4993415;28;19937;-55
2022/04/24 04:21:50;;;;;;;;;;;19.40;95.00;;;;;;4996225;28;19933;-57
2022/04/24 04:24:17;;;;;;;;;;;19.40;95.00;;;;;;5003710;28;19934;-58
2022/04/24 04:26:44;;;;;;;;;;;19.40;95.00;;;;;;5008443;28;19936;-56
2022/04/24 04:29:11;;;;;;;;;;;19.40;95.00;;;;;;4994346;28;19936;-56
2022/04/24 04:31:38;;;;;;;;;;;19.40;95.00;;;;;;4992921;28;19932;-55
2022/04/24 04:34:06;;;;;;;;;;;19.40;95.00;;;;;;4991500;28;19926;-54
2022/04/24 04:36:33;;;;;;;;;;;19.40;95.00;;;;;;5006243;28;19932;-57
2022/04/24 04:39:00;;;;;;;;;;;19.40;95.10;;;;;;5001657;28;19925;-54
2022/04/24 04:41:27;;;;;;;;;;;19.40;95.10;;;;;;5002455;28;19961;-53
2022/04/24 04:43:55;;;;;;;;;;;19.40;95.10;;;;;;4994945;28;20368;-54
2022/04/24 04:46:22;;;;;;;;;;;19.40;95.10;;;;;;4999966;28;19936;-56
2022/04/24 04:48:49;;;;;;;;;;;19.40;95.10;;;;;;4990807;28;19929;-57
2022/04/24 04:51:16;;;;;;;;;;;19.40;95.10;;;;;;5000949;28;19930;-56
2022/04/24 04:53:43;;;;;;;;;;;19.40;95.10;;;;;;4993769;28;19929;-54
2022/04/24 04:56:11;;;;;;;;;;;19.30;95.10;;;;;;5005358;28;19929;-55
2022/04/24 04:58:38;;;;;;;;;;;19.30;95.10;;;;;;5015382;28;19933;-53
2022/04/24 05:01:06;;;;;;;;;;;19.40;95.10;;;;;;5009611;28;19949;-56
2022/04/24 05:03:33;;;;;;;;;;;19.40;95.10;;;;;;4997829;28;19930;-56
2022/04/24 05:06:00;;;;;;;;;;;19.40;95.10;;;;;;5001698;28;19937;-55
2022/04/24 05:08:28;;;;;;;;;;;19.30;95.10;;;;;;4997917;28;19934;-55
2022/04/24 05:10:55;;;;;;;;;;;19.30;95.10;;;;;;5000049;28;19929;-56
2022/04/24 05:13:22;;;;;;;;;;;19.30;95.10;;;;;;5006641;28;19940;-53
2022/04/24 05:15:49;;;;;;;;;;;19.30;95.10;;;;;;5016592;28;20303;-57
2022/04/24 05:18:16;;;;;;;;;;;19.30;95.10;;;;;;5010179;28;20711;-58
2022/04/24 05:20:43;;;;;;;;;;;19.30;95.10;;;;;;5002028;28;19937;-55
2022/04/24 05:23:11;;;;;;;;;;;19.30;95.10;;;;;;4991919;28;19929;-58
2022/04/24 05:25:38;;;;;;;;;;;19.30;95.20;;;;;;5000662;28;19936;-57
2022/04/24 05:28:05;;;;;;;;;;;19.40;95.20;;;;;;4993350;28;19926;-57
2022/04/24 05:30:33;;;;;;;;;;;19.40;95.10;;;;;;5012179;28;20389;-57
2022/04/24 05:33:00;;;;;;;;;;;19.40;95.10;;;;;;4998702;28;19932;-57
2022/04/24 05:35:27;;;;;;;;;;;19.40;95.10;;;;;;4991028;28;19930;-57
2022/04/24 05:37:54;;;;;;;;;;;19.40;95.10;;;;;;4996378;28;20251;-57
2022/04/24 05:40:21;;;;;;;;;;;19.40;95.10;;;;;;5003070;28;19929;-58
2022/04/24 05:42:50;;;;;;;;;;;19.40;95.10;;;;;;4995160;28;19960;-57
2022/04/24 05:45:18;;;;;;;;;;;19.40;95.20;;;;;;5013730;28;19929;-57
2022/04/24 05:47:46;;;;;;;;;;;19.40;95.10;;;;;;5006910;28;19936;-59
2022/04/24 05:50:13;;;;;;;;;;;19.40;95.10;;;;;;4996390;28;19929;-55
2022/04/24 05:52:41;;;;;;;;;;;19.40;95.10;;;;;;5008021;28;19929;-57
2022/04/24 05:55:08;;;;;;;;;;;19.30;95.10;;;;;;5008203;28;19929;-57
2022/04/24 05:57:36;;;;;;;;;;;19.40;95.20;;;;;;5002781;28;20316;-56
2022/04/24 06:00:06;;;;;;;;;;;19.30;95.20;;;;;;5010658;28;19926;-58
2022/04/24 06:02:39;;;;;;;;;;;19.40;95.20;;;;;;5009161;28;19926;-55
2022/04/24 06:05:07;;;;;;;;;;;19.30;95.20;;;;;;5001755;28;20413;-55
2022/04/24 06:07:34;;;;;;;;;;;19.40;95.20;;;;;;5008485;28;19930;-56
2022/04/24 06:10:02;;;;;;;;;;;19.30;95.20;;;;;;5006950;28;19937;-60
2022/04/24 06:12:29;;;;;;;;;;;19.40;95.20;;;;;;5011211;28;19929;-59
2022/04/24 06:15:03;;;;;;;;;;;19.40;95.20;;;;;;5012241;28;20069;-59
2022/04/24 06:17:30;;;;;;;;;;;19.30;95.20;;;;;;4997267;28;19930;-58
2022/04/24 06:19:57;;;;;;;;;;;19.30;95.20;;;;;;4996010;28;19929;-60
2022/04/24 06:22:24;;;;;;;;;;;19.30;95.20;;;;;;4989133;28;20348;-58
2022/04/24 06:24:51;;;;;;;;;;;19.30;95.30;;;;;;4993911;28;19930;-54
2022/04/24 06:27:19;;;;;;;;;;;19.30;95.20;;;;;;4989425;28;19934;-57
2022/04/24 06:29:46;;;;;;;;;;;19.30;95.20;;;;;;4997538;28;19936;-58
2022/04/24 06:32:13;;;;;;;;;;;19.30;95.20;;;;;;4989290;28;19930;-57
2022/04/24 06:34:40;;;;;;;;;;;19.30;95.20;;;;;;4988730;28;19930;-54
2022/04/24 06:37:08;;;;;;;;;;;19.30;95.20;;;;;;4988052;28;19941;-56
2022/04/24 06:39:35;;;;;;;;;;;19.30;95.20;;;;;;4995551;28;20317;-58
2022/04/24 06:42:03;;;;;;;;;;;19.30;95.30;;;;;;4989244;28;19937;-56
2022/04/24 06:44:33;;;;;;;;;;;19.40;95.30;;;;;;4987849;28;19930;-58
2022/04/24 06:47:01;;;;;;;;;;;19.30;95.20;;;;;;5012578;28;19929;-54
2022/04/24 06:49:28;;;;;;;;;;;19.30;95.30;;;;;;4988927;28;19937;-57
2022/04/24 06:51:55;;;;;;;;;;;19.30;95.30;;;;;;4996867;28;20380;-56
2022/04/24 06:54:22;;;;;;;;;;;19.30;95.30;;;;;;5004292;28;19936;-57
2022/04/24 06:56:49;;;;;;;;;;;19.30;95.30;;;;;;4997454;28;19934;-59
2022/04/24 06:59:16;;;;;;;;;;;19.30;95.30;;;;;;4989403;28;19930;-57
2022/04/24 07:01:44;;;;;;;;;;;19.30;95.30;;;;;;4987642;28;20247;-58
2022/04/24 07:04:12;;;;;;;;;;;19.30;95.30;;;;;;5008046;28;19929;-57
2022/04/24 07:06:39;;;;;;;;;;;19.30;95.30;;;;;;5002443;28;19941;-57
2022/04/24 07:09:06;;;;;;;;;;;19.30;95.30;;;;;;5009279;28;20225;-56
2022/04/24 07:11:34;;;;;;;;;;;19.30;95.30;;;;;;4998436;28;19930;-59
2022/04/24 07:14:01;;;;;;;;;;;19.30;95.30;;;;;;5002332;28;19929;-58
2022/04/24 07:16:28;;;;;;;;;;;19.30;95.30;;;;;;5009687;28;19937;-55
2022/04/24 07:18:55;;;;;;;;;;;19.30;95.40;;;;;;5004240;28;19929;-55
2022/04/24 07:21:23;;;;;;;;;;;19.30;95.40;;;;;;5004204;28;19929;-57
2022/04/24 07:23:54;;;;;;;;;;;19.30;95.40;;;;;;5003719;28;20081;-57
2022/04/24 07:26:21;;;;;;;;;;;19.30;95.40;;;;;;5006784;28;20089;-58
2022/04/24 07:28:48;;;;;;;;;;;19.30;95.40;;;;;;5010481;28;19929;-56
2022/04/24 07:31:19;;;;;;;;;;;19.30;95.30;;;;;;5011151;28;20384;-58
2022/04/24 07:33:47;;;;;;;;;;;19.20;94.90;;;;;;5010886;28;19930;-58
2022/04/24 07:36:15;;;;;;;;;;;19.10;93.80;;;;;;4999135;28;19933;-57
2022/04/24 07:38:42;;;;;;;;;;;19.00;93.20;;;;;;5005420;28;19930;-56
2022/04/24 07:41:10;;;;;;;;;;;19.00;92.80;;;;;;4992265;28;19934;-56
2022/04/24 07:43:37;;;;;;;;;;;18.90;92.20;;;;;;4992709;28;20044;-57
2022/04/24 07:46:05;;;;;;;;;;;18.90;91.70;;;;;;5017460;28;19945;-56
2022/04/24 07:48:32;;;;;;;;;;;18.90;91.10;;;;;;5007503;28;19941;-58
2022/04/24 07:50:59;;;;;;;;;;;18.80;90.90;;;;;;5006813;28;20213;-59
2022/04/24 07:53:27;;;;;;;;;;;18.80;90.70;;;;;;5000056;28;19952;-58
2022/04/24 07:55:54;;;;;;;;;;;18.80;90.30;;;;;;4993929;28;19929;-56
2022/04/24 07:58:21;;;;;;;;;;;18.80;90.10;;;;;;5009875;28;19936;-56
2022/04/24 08:00:48;;;;;;;;;;;18.80;90.10;;;;;;4994886;28;19956;-57
2022/04/24 08:03:16;;;;;;;;;;;18.70;89.90;;;;;;5004872;28;20425;-58
2022/04/24 08:05:45;;;;;;;;;;;18.70;89.70;;;;;;4995014;28;19952;-56
2022/04/24 08:08:17;;;;;;;;;;;18.70;89.10;;;;;;5004283;28;19929;-54
2022/04/24 08:10:47;;;;;;;;;;;18.70;88.70;;;;;;4998963;28;19937;-56
2022/04/24 08:13:15;;;;;;;;;;;18.70;88.00;;;;;;5008039;28;19937;-55
2022/04/24 08:15:43;;;;;;;;;;;18.70;88.40;;;;;;5002497;28;20652;-58
2022/04/24 08:18:11;;;;;;;;;;;18.70;88.00;;;;;;4999535;28;19941;-58
2022/04/24 08:20:39;;;;;;;;;;;18.70;87.70;;;;;;4988440;28;19926;-59
2022/04/24 08:23:06;;;;;;;;;;;18.70;87.40;;;;;;5009631;28;20330;-57
2022/04/24 08:25:37;;;;;;;;;;;18.70;87.40;;;;;;5016667;28;20005;-59
2022/04/24 08:28:06;;;;;;;;;;;18.70;87.10;;;;;;5018381;28;19937;-59
2022/04/24 08:30:38;;;;;;;;;;;18.60;86.90;;;;;;5000770;28;19930;-57
2022/04/24 08:33:06;;;;;;;;;;;18.60;86.60;;;;;;5000117;28;19929;-55
2022/04/24 08:35:33;;;;;;;;;;;18.60;86.80;;;;;;5003103;28;19929;-55
2022/04/24 08:38:00;;;;;;;;;;;18.60;86.60;;;;;;5015197;28;19937;-59
2022/04/24 08:40:28;;;;;;;;;;;18.60;86.40;;;;;;5046233;28;20356;-57
2022/04/24 08:42:55;;;;;;;;;;;18.60;86.40;;;;;;4992864;28;19929;-56
2022/04/24 08:45:24;;;;;;;;;;;18.60;86.50;;;;;;5011828;28;19926;-54
2022/04/24 08:47:52;;;;;;;;;;;18.60;86.30;;;;;;5006148;28;19945;-55
2022/04/24 08:50:19;;;;;;;;;;;18.60;86.40;;;;;;5012752;28;19937;-54
2022/04/24 08:52:47;;;;;;;;;;;18.50;86.20;;;;;;5009543;28;19929;-60
2022/04/24 08:55:14;;;;;;;;;;;18.60;85.80;;;;;;4999023;28;20028;-55
2022/04/24 08:57:42;;;;;;;;;;;18.60;85.70;;;;;;4995456;28;19930;-57
2022/04/24 09:00:09;;;;;;;;;;;18.60;85.60;;;;;;5009475;28;19941;-57
2022/04/24 09:02:53;;;;;;;;;;;18.70;85.60;;;;;;5003915;28;19948;-59
2022/04/24 09:05:21;;;;;;;;;;;18.90;86.00;;;;;;5003448;28;20312;-57
2022/04/24 09:07:52;;;;;;;;;;;19.10;86.00;;;;;;5000053;28;19930;-57
2022/04/24 09:10:55;;;;;;;;;;;19.10;86.20;;;;;;5003422;28;19929;-59
2022/04/24 09:13:29;;;;;;;;;;;19.10;87.10;;;;;;5000871;28;20343;-56
2022/04/24 09:16:02;;;;;;;;;;;19.10;88.80;;;;;;5015856;28;19929;-56
2022/04/24 09:18:36;;;;;;;;;;;19.10;93.40;;;;;;5011054;28;19936;-58
2022/04/24 09:21:03;;;;;;;;;;;19.10;92.90;;;;;;5008343;28;19929;-54
2022/04/24 09:23:37;;;;;;;;;;;19.00;92.00;;;;;;4996896;28;20232;-54
2022/04/24 09:26:04;;;;;;;;;;;18.90;91.40;;;;;;5013156;28;20407;-57
2022/04/24 09:28:36;;;;;;;;;;;18.80;91.70;;;;;;5011781;28;19929;-59
2022/04/24 09:31:04;;;;;;;;;;;18.80;91.10;;;;;;5012044;28;19930;-57
2022/04/24 09:33:37;;;;;;;;;;;18.70;91.30;;;;;;5025098;28;19934;-56
2022/04/24 09:36:05;;;;;;;;;;;18.80;91.60;;;;;;5036659;28;19952;-61
2022/04/24 09:38:39;;;;;;;;;;;18.80;91.50;;;;;;5014040;28;19929;-55
2022/04/24 09:41:13;;;;;;;;;;;18.80;91.40;;;;;;5007509;28;20286;-58
2022/04/24 09:43:41;;;;;;;;;;;18.80;91.20;;;;;;5007601;28;19951;-58
2022/04/24 09:46:09;;;;;;;;;;;18.70;91.20;;;;;;5019833;28;19936;-59
2022/04/24 09:49:00;;;;;;;;;;;18.70;90.80;;;;;;5025669;28;19952;-58
2022/04/24 09:51:27;;;;;;;;;;;18.70;90.50;;;;;;5003010;28;21394;-63
2022/04/24 09:53:57;;;;;;;;;;;18.70;90.90;;;;;;4990871;28;19929;-62
2022/04/24 09:56:27;;;;;;;;;;;18.90;92.00;;;;;;4996568;28;19930;-57
2022/04/24 09:58:57;;;;;;;;;;;19.00;92.30;;;;;;5009453;28;19940;-54
2022/04/24 10:01:25;;;;;;;;;;;19.10;92.50;;;;;;5005410;28;19930;-54
2022/04/24 10:03:53;;;;;;;;;;;19.10;92.70;;;;;;4993668;28;19930;-62
2022/04/24 10:06:22;;;;;;;;;;;19.20;92.90;;;;;;5006632;28;19937;-55
2022/04/24 10:08:49;;;;;;;;;;;19.20;93.10;;;;;;5003908;28;19936;-55
2022/04/24 10:11:17;;;;;;;;;;;19.20;93.20;;;;;;5007508;28;20005;-55
2022/04/24 10:13:45;;;;;;;;;;;19.20;93.40;;;;;;5002748;28;19936;-56
2022/04/24 10:16:31;;;;;;;;;;;19.20;93.50;;;;;;5005102;28;20212;-56
2022/04/24 10:19:21;;;;;;;;;;;19.20;93.50;;;;;;4993530;28;20168;-59
2022/04/24 10:22:02;;;;;;;;;;;19.30;93.50;;;;;;5002724;28;19926;-59
2022/04/24 10:24:40;;;;;;;;;;;19.30;93.30;;;;;;4995124;28;19932;-57
2022/04/24 10:27:11;;;;;;;;;;;19.30;93.40;;;;;;5005437;28;19925;-54
2022/04/24 10:29:48;;;;;;;;;;;19.30;93.40;;;;;;4993709;28;19940;-57
2022/04/24 10:32:26;;;;;;;;;;;19.30;93.40;;;;;;4997941;28;19929;-59
2022/04/24 10:34:56;;;;;;;;;;;19.30;93.50;;;;;;4991196;28;19953;-57
2022/04/24 10:37:31;;;;;;;;;;;19.30;93.50;;;;;;4989957;28;19933;-59
2022/04/24 10:40:00;;;;;;;;;;;19.30;93.50;;;;;;4995856;28;19930;-55
2022/04/24 10:42:32;;;;;;;;;;;19.30;93.60;;;;;;5002139;28;19937;-57
2022/04/24 10:45:16;;;;;;;;;;;19.30;93.50;;;;;;5007152;28;19926;-59
2022/04/24 10:47:45;;;;;;;;;;;19.30;93.60;;;;;;5041895;28;20325;-60
2022/04/24 10:50:13;;;;;;;;;;;19.30;93.60;;;;;;5000168;28;20537;-57
2022/04/24 10:52:45;;;;;;;;;;;19.30;93.60;;;;;;5006505;28;19936;-58
2022/04/24 10:55:12;;;;;;;;;;;19.30;93.60;;;;;;4994674;28;19933;-57
2022/04/24 10:57:40;;;;;;;;;;;19.20;93.60;;;;;;5009006;28;19930;-56
2022/04/24 11:00:19;;;;;;;;;;;19.20;93.60;;;;;;5006003;28;19936;-56
2022/04/24 11:02:47;;;;;;;;;;;19.20;93.60;;;;;;5000656;28;19930;-56
2022/04/24 11:05:24;;;;;;;;;;;19.20;93.70;;;;;;4994046;28;19944;-56
2022/04/24 11:08:04;;;;;;;;;;;19.20;93.70;;;;;;5007964;28;19960;-57
2022/04/24 11:10:37;;;;;;;;;;;19.20;94.00;;;;;;5002016;28;20005;-59
2022/04/24 11:13:07;;;;;;;;;;;19.20;93.70;;;;;;4994699;28;20344;-58
2022/04/24 11:15:39;;;;;;;;;;;19.20;94.10;;;;;;4992423;28;19940;-57
2022/04/24 11:18:15;;;;;;;;;;;19.20;93.80;;;;;;4989776;28;19964;-57
2022/04/24 11:20:43;;;;;;;;;;;19.20;93.80;;;;;;5001036;28;19929;-58
2022/04/24 11:23:10;;;;;;;;;;;19.20;93.80;;;;;;4990302;28;19930;-57
2022/04/24 11:25:38;;;;;;;;;;;19.20;93.80;;;;;;5006729;28;19930;-58
2022/04/24 11:28:06;;;;;;;;;;;19.20;93.80;;;;;;5002381;28;20013;-56
2022/04/24 11:30:36;;;;;;;;;;;19.20;93.80;;;;;;5002768;28;19937;-58
2022/04/24 11:33:06;;;;;;;;;;;19.20;93.80;;;;;;4989976;28;19930;-55
2022/04/24 11:35:38;;;;;;;;;;;19.20;93.80;;;;;;5004001;28;19937;-57
2022/04/24 11:38:06;;;;;;;;;;;19.20;93.80;;;;;;5002516;28;19926;-58
2022/04/24 11:40:35;;;;;;;;;;;19.20;93.80;;;;;;5000895;28;19936;-59
2022/04/24 11:43:19;;;;;;;;;;;19.20;93.80;;;;;;5007085;28;20282;-58
2022/04/24 11:51:32;;;;;;;;;;;19.20;93.80;;;;;;4990294;28;19930;-56
2022/04/24 11:54:08;;;;;;;;;;;19.20;93.80;;;;;;4996700;28;20360;-58
2022/04/24 11:56:37;;;;;;;;;;;19.20;93.80;;;;;;5010509;28;19925;-60
2022/04/24 11:59:14;;;;;;;;;;;19.20;93.80;;;;;;5008700;28;20017;-60
2022/04/24 12:01:44;;;;;;;;;;;19.20;93.80;;;;;;5007675;28;19936;-61
2022/04/24 12:04:15;;;;;;;;;;;19.20;93.70;;;;;;4992820;28;19934;-59
2022/04/24 12:06:43;;;;;;;;;;;19.20;93.70;;;;;;4995807;28;19929;-57
2022/04/24 12:09:10;;;;;;;;;;;19.20;93.70;;;;;;4995093;28;19929;-55
2022/04/24 12:11:37;;;;;;;;;;;19.20;93.70;;;;;;4994814;28;19929;-59
2022/04/24 12:14:07;;;;;;;;;;;19.20;93.70;;;;;;4997077;28;19929;-59
2022/04/24 12:16:35;;;;;;;;;;;19.20;93.70;;;;;;5004061;28;19933;-54
2022/04/24 12:19:04;;;;;;;;;;;19.20;93.80;;;;;;4994162;28;19961;-54
2022/04/24 12:21:32;;;;;;;;;;;19.20;93.80;;;;;;5008810;28;19936;-60
2022/04/24 12:23:59;;;;;;;;;;;19.20;93.80;;;;;;4996181;28;19929;-60
2022/04/24 12:26:26;;;;;;;;;;;19.20;93.80;;;;;;5010102;28;20021;-56
2022/04/24 12:28:54;;;;;;;;;;;19.20;93.80;;;;;;4999151;28;19930;-60
2022/04/24 12:31:25;;;;;;;;;;;19.20;93.80;;;;;;5003790;28;19926;-61
2022/04/24 12:33:53;;;;;;;;;;;19.20;93.80;;;;;;4994514;28;19930;-57
2022/04/24 12:36:21;;;;;;;;;;;19.20;93.70;;;;;;4992104;28;19933;-57
2022/04/24 12:38:55;;;;;;;;;;;19.20;93.70;;;;;;5006857;28;19948;-57
2022/04/24 12:41:26;;;;;;;;;;;19.20;93.70;;;;;;4993280;28;19941;-59
2022/04/24 12:43:57;;;;;;;;;;;19.20;93.70;;;;;;5017051;28;20395;-58
2022/04/24 12:46:24;;;;;;;;;;;19.20;93.70;;;;;;5013574;28;20309;-54
2022/04/24 12:48:52;;;;;;;;;;;19.20;93.70;;;;;;4999507;28;19930;-61
2022/04/24 12:51:26;;;;;;;;;;;19.20;93.70;;;;;;5008712;28;19929;-55
2022/04/24 12:53:54;;;;;;;;;;;19.20;93.70;;;;;;4995911;28;19937;-57
2022/04/24 12:56:21;;;;;;;;;;;19.20;93.60;;;;;;5005270;28;19930;-54
2022/04/24 12:58:48;;;;;;;;;;;19.20;93.60;;;;;;5021526;28;19937;-57
2022/04/24 13:01:16;;;;;;;;;;;19.20;93.70;;;;;;5000866;28;19936;-61
2022/04/24 13:03:46;;;;;;;;;;;19.20;93.60;;;;;;5013501;28;19929;-57
2022/04/24 13:06:15;;;;;;;;;;;19.20;93.60;;;;;;4996755;28;19937;-56
2022/04/24 13:08:45;;;;;;;;;;;19.20;93.70;;;;;;4990684;28;19930;-57
2022/04/24 13:11:12;;;;;;;;;;;19.20;93.70;;;;;;5001248;28;19937;-57
2022/04/24 13:13:39;;;;;;;;;;;19.20;93.70;;;;;;4995699;28;19937;-56
2022/04/24 13:18:52;;;;;;;;;;;19.20;93.70;;;;;;4992928;28;19930;-58
2022/04/24 13:21:22;;;;;;;;;;;19.30;93.70;;;;;;5002870;28;19930;-56
2022/04/24 13:23:49;;;;;;;;;;;19.30;93.60;;;;;;4993642;28;19937;-60
2022/04/24 13:26:17;;;;;;;;;;;19.40;93.50;;;;;;5005919;28;19929;-60
2022/04/24 13:28:44;;;;;;;;;;;19.40;93.50;;;;;;5008595;28;19933;-61
2022/04/24 13:31:11;;;;;;;;;;;19.40;93.40;;;;;;5005520;28;20354;-58
2022/04/24 13:33:38;;;;;;;;;;;19.40;93.40;;;;;;4995144;28;19934;-59
2022/04/24 13:36:06;;;;;;;;;;;19.40;93.30;;;;;;4994254;28;19933;-58
2022/04/24 13:38:33;;;;;;;;;;;19.50;93.40;;;;;;4990799;28;19933;-60
2022/04/24 13:41:02;;;;;;;;;;;19.40;93.30;;;;;;5003304;28;19936;-57
2022/04/24 13:43:29;;;;;;;;;;;19.50;93.60;;;;;;4991116;28;19926;-57
2022/04/24 13:45:57;;;;;;;;;;;19.50;93.30;;;;;;5011685;28;19936;-57
2022/04/24 13:48:26;;;;;;;;;;;19.50;93.30;;;;;;4999752;28;20401;-58
2022/04/24 13:50:57;;;;;;;;;;;19.50;93.30;;;;;;5001284;28;19940;-59
2022/04/24 13:53:25;;;;;;;;;;;19.50;93.30;;;;;;4991800;28;20376;-57
2022/04/24 13:55:52;;;;;;;;;;;19.50;93.30;;;;;;5004346;28;19936;-59
2022/04/24 13:58:20;;;;;;;;;;;19.50;93.30;;;;;;4999303;28;19930;-58
2022/04/24 14:00:49;;;;;;;;;;;19.50;93.30;;;;;;4995301;28;19933;-58
2022/04/24 14:03:18;;;;;;;;;;;19.50;93.30;;;;;;4989670;28;19929;-59
2022/04/24 14:05:45;;;;;;;;;;;19.40;93.30;;;;;;5000345;28;19929;-56
2022/04/24 14:08:16;;;;;;;;;;;19.40;93.30;;;;;;4987924;28;20384;-59
2022/04/24 14:10:45;;;;;;;;;;;19.40;93.30;;;;;;5003424;28;19933;-56
2022/04/24 14:13:12;;;;;;;;;;;19.40;93.30;;;;;;5002248;28;19944;-60
2022/04/24 14:15:39;;;;;;;;;;;19.40;93.30;;;;;;5004890;28;19936;-59
2022/04/24 14:18:06;;;;;;;;;;;19.40;93.30;;;;;;5006313;28;20385;-58
2022/04/24 14:20:34;;;;;;;;;;;19.40;93.30;;;;;;4995928;28;20397;-56
2022/04/24 14:23:20;;;;;;;;;;;19.40;93.30;;;;;;4989084;28;20436;-60
2022/04/24 14:25:48;;;;;;;;;;;19.40;93.30;;;;;;5002175;28;19926;-56
2022/04/24 14:28:15;;;;;;;;;;;19.40;93.30;;;;;;4990579;28;19940;-56
2022/04/24 14:30:45;;;;;;;;;;;19.30;93.30;;;;;;4998763;28;19929;-56
2022/04/24 14:33:13;;;;;;;;;;;19.40;93.40;;;;;;4989683;28;19930;-60